sensor_id;sensor_type;location;lat;lon;timestamp;noise_LAeq;noise_LA_min;noise_LA_max;noise_LA01;noise_LA95
75467;Laerm;64050;50.634;3.062;2023-05-10T00:01:12;46.68;43.94;53.10;;
75467;Laerm;64050;50.634;3.062;2023-05-10T00:03:37;47.46;44.59;54.78;;
75467;Laerm;64050;50.634;3.062;2023-05-10T00:06:03;47.75;45.26;54.82;;
75467;Laerm;64050;50.634;3.062;2023-05-10T00:08:28;48.08;44.46;61.14;;
75467;Laerm;64050;50.634;3.062;2023-05-10T00:10:53;48.17;43.25;57.35;;
75467;Laerm;64050;50.634;3.062;2023-05-10T00:13:18;46.35;43.52;57.80;;
75467;Laerm;64050;50.634;3.062;2023-05-10T00:15:44;47.72;43.63;55.96;;
75467;Laerm;64050;50.634;3.062;2023-05-10T00:18:09;46.88;43.74;52.72;;
75467;Laerm;64050;50.634;3.062;2023-05-10T00:20:35;47.43;44.25;53.75;;
75467;Laerm;64050;50.634;3.062;2023-05-10T00:23:00;47.63;44.76;53.04;;
75467;Laerm;64050;50.634;3.062;2023-05-10T00:25:25;46.75;44.15;51.41;;
75467;Laerm;64050;50.634;3.062;2023-05-10T00:27:50;46.28;43.52;50.42;;
75467;Laerm;64050;50.634;3.062;2023-05-10T00:30:16;46.25;43.66;50.99;;
75467;Laerm;64050;50.634;3.062;2023-05-10T00:32:41;46.30;43.60;51.83;;
75467;Laerm;64050;50.634;3.062;2023-05-10T00:35:07;47.25;44.29;51.89;;
75467;Laerm;64050;50.634;3.062;2023-05-10T00:37:32;47.63;44.87;51.85;;
75467;Laerm;64050;50.634;3.062;2023-05-10T00:39:57;47.23;44.48;54.14;;
75467;Laerm;64050;50.634;3.062;2023-05-10T00:42:22;46.82;43.55;54.91;;
75467;Laerm;64050;50.634;3.062;2023-05-10T00:44:48;46.33;43.32;49.85;;
75467;Laerm;64050;50.634;3.062;2023-05-10T00:47:13;45.95;43.23;51.60;;
75467;Laerm;64050;50.634;3.062;2023-05-10T00:49:38;46.19;43.33;50.23;;
75467;Laerm;64050;50.634;3.062;2023-05-10T00:52:04;46.85;43.24;57.98;;
75467;Laerm;64050;50.634;3.062;2023-05-10T00:54:29;46.71;44.35;49.73;;
75467;Laerm;64050;50.634;3.062;2023-05-10T00:56:55;47.00;44.06;58.27;;
75467;Laerm;64050;50.634;3.062;2023-05-10T00:59:21;46.40;43.57;51.33;;
75467;Laerm;64050;50.634;3.062;2023-05-10T01:01:47;45.98;42.97;51.74;;
75467;Laerm;64050;50.634;3.062;2023-05-10T01:04:12;46.34;43.03;50.71;;
75467;Laerm;64050;50.634;3.062;2023-05-10T01:06:39;47.28;44.38;50.84;;
75467;Laerm;64050;50.634;3.062;2023-05-10T01:09:04;48.20;44.41;52.99;;
75467;Laerm;64050;50.634;3.062;2023-05-10T01:11:31;47.47;44.81;50.88;;
75467;Laerm;64050;50.634;3.062;2023-05-10T01:13:56;47.65;44.95;50.05;;
75467;Laerm;64050;50.634;3.062;2023-05-10T01:16:22;47.08;44.51;51.08;;
75467;Laerm;64050;50.634;3.062;2023-05-10T01:18:48;47.02;44.07;51.98;;
75467;Laerm;64050;50.634;3.062;2023-05-10T01:21:27;47.08;44.27;50.52;;
75467;Laerm;64050;50.634;3.062;2023-05-10T01:35:03;46.20;43.48;48.91;;
75467;Laerm;64050;50.634;3.062;2023-05-10T01:37:33;46.22;43.28;49.11;;
75467;Laerm;64050;50.634;3.062;2023-05-10T01:40:03;46.22;43.46;49.17;;
75467;Laerm;64050;50.634;3.062;2023-05-10T01:42:32;47.60;44.41;50.32;;
75467;Laerm;64050;50.634;3.062;2023-05-10T01:45:11;47.83;45.05;51.24;;
75467;Laerm;64050;50.634;3.062;2023-05-10T01:47:58;47.36;43.47;50.50;;
75467;Laerm;64050;50.634;3.062;2023-05-10T01:50:27;46.09;43.51;49.22;;
75467;Laerm;64050;50.634;3.062;2023-05-10T01:52:54;46.25;43.53;49.09;;
75467;Laerm;64050;50.634;3.062;2023-05-10T01:55:20;46.32;43.63;49.78;;
75467;Laerm;64050;50.634;3.062;2023-05-10T01:57:46;47.66;44.63;54.96;;
75467;Laerm;64050;50.634;3.062;2023-05-10T02:00:13;48.03;45.02;52.02;;
75467;Laerm;64050;50.634;3.062;2023-05-10T02:02:40;48.56;45.57;59.90;;
75467;Laerm;64050;50.634;3.062;2023-05-10T02:05:07;48.08;43.85;60.38;;
75467;Laerm;64050;50.634;3.062;2023-05-10T02:07:33;46.68;43.43;50.55;;
75467;Laerm;64050;50.634;3.062;2023-05-10T02:09:59;46.79;43.62;58.77;;
75467;Laerm;64050;50.634;3.062;2023-05-10T02:12:25;49.28;43.86;64.08;;
75467;Laerm;64050;50.634;3.062;2023-05-10T02:14:51;48.12;45.10;54.51;;
75467;Laerm;64050;50.634;3.062;2023-05-10T02:17:17;47.70;45.58;50.61;;
75467;Laerm;64050;50.634;3.062;2023-05-10T02:19:43;46.70;43.50;49.92;;
75467;Laerm;64050;50.634;3.062;2023-05-10T02:22:10;46.19;43.00;49.78;;
75467;Laerm;64050;50.634;3.062;2023-05-10T02:24:36;45.99;43.32;49.05;;
75467;Laerm;64050;50.634;3.062;2023-05-10T02:27:02;46.25;43.39;49.43;;
75467;Laerm;64050;50.634;3.062;2023-05-10T02:29:28;47.18;44.36;50.50;;
75467;Laerm;64050;50.634;3.062;2023-05-10T02:31:54;47.94;45.07;50.63;;
75467;Laerm;64050;50.634;3.062;2023-05-10T02:34:21;47.56;43.93;50.37;;
75467;Laerm;64050;50.634;3.062;2023-05-10T02:36:47;46.50;43.44;49.42;;
75467;Laerm;64050;50.634;3.062;2023-05-10T02:39:12;46.33;43.72;49.06;;
75467;Laerm;64050;50.634;3.062;2023-05-10T02:41:39;46.14;43.22;53.76;;
75467;Laerm;64050;50.634;3.062;2023-05-10T02:44:05;47.04;43.70;50.30;;
75467;Laerm;64050;50.634;3.062;2023-05-10T02:46:31;47.55;44.59;50.48;;
75467;Laerm;64050;50.634;3.062;2023-05-10T02:48:57;47.84;44.77;51.29;;
75467;Laerm;64050;50.634;3.062;2023-05-10T02:51:24;47.16;44.26;49.93;;
75467;Laerm;64050;50.634;3.062;2023-05-10T02:53:52;46.50;43.65;49.64;;
75467;Laerm;64050;50.634;3.062;2023-05-10T02:56:53;46.48;43.61;50.38;;
75467;Laerm;64050;50.634;3.062;2023-05-10T02:59:10;47.20;43.51;50.84;;
75467;Laerm;64050;50.634;3.062;2023-05-10T03:01:36;47.15;44.17;50.41;;
75467;Laerm;64050;50.634;3.062;2023-05-10T03:04:01;48.06;45.24;51.29;;
75467;Laerm;64050;50.634;3.062;2023-05-10T03:06:26;47.17;44.61;49.56;;
75467;Laerm;64050;50.634;3.062;2023-05-10T03:08:51;47.22;43.51;54.07;;
75467;Laerm;64050;50.634;3.062;2023-05-10T03:16:35;47.69;44.30;57.69;;
75467;Laerm;64050;50.634;3.062;2023-05-10T03:19:09;47.95;44.68;53.42;;
75467;Laerm;64050;50.634;3.062;2023-05-10T03:21:36;47.05;44.20;49.97;;
75467;Laerm;64050;50.634;3.062;2023-05-10T03:24:05;46.89;43.91;50.22;;
75467;Laerm;64050;50.634;3.062;2023-05-10T03:26:31;46.39;43.46;51.62;;
75467;Laerm;64050;50.634;3.062;2023-05-10T03:28:57;46.51;43.53;50.00;;
75467;Laerm;64050;50.634;3.062;2023-05-10T03:31:24;47.54;43.99;53.15;;
75467;Laerm;64050;50.634;3.062;2023-05-10T03:33:50;47.33;44.46;50.71;;
75467;Laerm;64050;50.634;3.062;2023-05-10T03:36:15;47.11;43.64;51.18;;
75467;Laerm;64050;50.634;3.062;2023-05-10T03:38:41;47.10;44.32;49.71;;
75467;Laerm;64050;50.634;3.062;2023-05-10T03:41:06;47.41;44.69;51.59;;
75467;Laerm;64050;50.634;3.062;2023-05-10T03:43:31;47.55;44.14;53.09;;
75467;Laerm;64050;50.634;3.062;2023-05-10T03:45:57;47.96;44.69;55.00;;
75467;Laerm;64050;50.634;3.062;2023-05-10T03:48:22;47.74;44.64;50.60;;
75467;Laerm;64050;50.634;3.062;2023-05-10T03:50:47;47.97;44.83;51.92;;
75467;Laerm;64050;50.634;3.062;2023-05-10T03:53:14;48.31;44.48;56.73;;
75467;Laerm;64050;50.634;3.062;2023-05-10T03:55:39;47.61;44.77;53.60;;
75467;Laerm;64050;50.634;3.062;2023-05-10T03:58:04;47.72;44.17;52.66;;
75467;Laerm;64050;50.634;3.062;2023-05-10T04:00:30;47.44;44.33;50.84;;
75467;Laerm;64050;50.634;3.062;2023-05-10T04:02:55;48.83;45.25;62.91;;
75467;Laerm;64050;50.634;3.062;2023-05-10T04:05:20;48.32;45.55;51.31;;
75467;Laerm;64050;50.634;3.062;2023-05-10T04:07:45;48.70;45.27;56.85;;
75467;Laerm;64050;50.634;3.062;2023-05-10T04:10:12;51.31;46.01;56.67;;
75467;Laerm;64050;50.634;3.062;2023-05-10T04:12:37;53.67;47.58;58.92;;
75467;Laerm;64050;50.634;3.062;2023-05-10T04:15:02;50.17;45.51;58.50;;
75467;Laerm;64050;50.634;3.062;2023-05-10T04:17:28;50.39;45.82;57.05;;
75467;Laerm;64050;50.634;3.062;2023-05-10T04:19:53;49.71;45.56;57.04;;
75467;Laerm;64050;50.634;3.062;2023-05-10T04:22:19;48.52;44.56;62.09;;
75467;Laerm;64050;50.634;3.062;2023-05-10T04:24:45;48.43;44.44;62.47;;
75467;Laerm;64050;50.634;3.062;2023-05-10T04:27:10;46.61;41.07;60.03;;
75467;Laerm;64050;50.634;3.062;2023-05-10T04:29:36;48.58;41.64;58.18;;
75467;Laerm;64050;50.634;3.062;2023-05-10T04:32:01;48.91;45.10;53.68;;
75467;Laerm;64050;50.634;3.062;2023-05-10T04:34:27;51.96;49.14;58.87;;
75467;Laerm;64050;50.634;3.062;2023-05-10T04:36:52;52.09;49.14;58.39;;
75467;Laerm;64050;50.634;3.062;2023-05-10T04:39:17;52.07;49.22;59.44;;
75467;Laerm;64050;50.634;3.062;2023-05-10T04:41:43;54.99;49.95;63.81;;
75467;Laerm;64050;50.634;3.062;2023-05-10T04:44:08;54.40;50.26;63.03;;
75467;Laerm;64050;50.634;3.062;2023-05-10T04:46:33;56.99;51.74;74.26;;
75467;Laerm;64050;50.634;3.062;2023-05-10T04:48:58;56.68;53.96;66.08;;
75467;Laerm;64050;50.634;3.062;2023-05-10T04:51:23;56.98;53.66;64.53;;
75467;Laerm;64050;50.634;3.062;2023-05-10T04:53:49;58.60;54.92;62.53;;
75467;Laerm;64050;50.634;3.062;2023-05-10T04:56:14;57.71;54.17;61.57;;
75467;Laerm;64050;50.634;3.062;2023-05-10T04:58:39;54.51;50.77;60.50;;
75467;Laerm;64050;50.634;3.062;2023-05-10T05:01:08;55.67;53.14;59.08;;
75467;Laerm;64050;50.634;3.062;2023-05-10T05:03:34;57.16;54.88;61.60;;
75467;Laerm;64050;50.634;3.062;2023-05-10T05:05:59;57.17;54.38;62.37;;
75467;Laerm;64050;50.634;3.062;2023-05-10T05:08:25;55.82;52.98;68.12;;
75467;Laerm;64050;50.634;3.062;2023-05-10T05:10:50;53.84;49.71;64.98;;
75467;Laerm;64050;50.634;3.062;2023-05-10T05:13:15;54.95;49.37;63.87;;
75467;Laerm;64050;50.634;3.062;2023-05-10T05:15:40;52.37;47.83;58.15;;
75467;Laerm;64050;50.634;3.062;2023-05-10T05:18:06;51.32;47.53;56.54;;
75467;Laerm;64050;50.634;3.062;2023-05-10T05:20:32;52.70;48.51;60.81;;
75467;Laerm;64050;50.634;3.062;2023-05-10T05:22:57;53.19;48.39;59.98;;
75467;Laerm;64050;50.634;3.062;2023-05-10T05:25:22;52.40;48.79;60.09;;
75467;Laerm;64050;50.634;3.062;2023-05-10T05:27:47;52.11;47.96;63.97;;
75467;Laerm;64050;50.634;3.062;2023-05-10T05:30:13;53.27;48.08;65.33;;
75467;Laerm;64050;50.634;3.062;2023-05-10T05:32:38;53.74;46.80;70.92;;
75467;Laerm;64050;50.634;3.062;2023-05-10T05:35:03;54.59;46.44;76.05;;
75467;Laerm;64050;50.634;3.062;2023-05-10T05:37:28;59.28;46.75;80.81;;
75467;Laerm;64050;50.634;3.062;2023-05-10T05:39:54;56.23;46.49;82.25;;
75467;Laerm;64050;50.634;3.062;2023-05-10T05:42:19;58.43;47.06;80.04;;
75467;Laerm;64050;50.634;3.062;2023-05-10T05:44:45;55.30;46.95;76.60;;
75467;Laerm;64050;50.634;3.062;2023-05-10T05:47:10;50.01;46.22;58.47;;
75467;Laerm;64050;50.634;3.062;2023-05-10T05:49:35;50.68;45.69;62.27;;
75467;Laerm;64050;50.634;3.062;2023-05-10T05:52:01;52.25;44.60;76.03;;
75467;Laerm;64050;50.634;3.062;2023-05-10T05:54:27;50.23;45.44;65.17;;
75467;Laerm;64050;50.634;3.062;2023-05-10T05:56:58;53.14;46.14;66.39;;
75467;Laerm;64050;50.634;3.062;2023-05-10T05:59:24;52.24;46.55;71.27;;
75467;Laerm;64050;50.634;3.062;2023-05-10T06:01:49;55.35;47.09;72.66;;
75467;Laerm;64050;50.634;3.062;2023-05-10T06:04:15;56.27;47.18;71.24;;
75467;Laerm;64050;50.634;3.062;2023-05-10T06:06:41;58.60;50.52;69.50;;
75467;Laerm;64050;50.634;3.062;2023-05-10T06:09:07;57.89;51.19;76.73;;
75467;Laerm;64050;50.634;3.062;2023-05-10T06:11:32;58.18;50.96;76.25;;
75467;Laerm;64050;50.634;3.062;2023-05-10T06:13:58;57.14;51.36;65.70;;
75467;Laerm;64050;50.634;3.062;2023-05-10T06:16:23;59.93;50.60;76.17;;
75467;Laerm;64050;50.634;3.062;2023-05-10T06:18:48;60.41;56.47;67.85;;
75467;Laerm;64050;50.634;3.062;2023-05-10T06:21:14;59.94;51.75;65.69;;
75467;Laerm;64050;50.634;3.062;2023-05-10T06:23:40;59.17;47.14;69.54;;
75467;Laerm;64050;50.634;3.062;2023-05-10T06:26:05;48.31;44.56;60.90;;
75467;Laerm;64050;50.634;3.062;2023-05-10T06:28:30;49.46;45.27;63.24;;
75467;Laerm;64050;50.634;3.062;2023-05-10T06:30:57;49.64;46.32;57.64;;
75467;Laerm;64050;50.634;3.062;2023-05-10T06:33:22;50.14;46.09;72.87;;
75467;Laerm;64050;50.634;3.062;2023-05-10T06:35:47;49.84;46.44;65.48;;
75467;Laerm;64050;50.634;3.062;2023-05-10T06:38:12;50.67;46.88;56.42;;
75467;Laerm;64050;50.634;3.062;2023-05-10T06:40:40;51.12;46.47;62.10;;
75467;Laerm;64050;50.634;3.062;2023-05-10T06:43:06;57.92;46.32;79.41;;
75467;Laerm;64050;50.634;3.062;2023-05-10T06:45:31;51.31;46.36;63.58;;
75467;Laerm;64050;50.634;3.062;2023-05-10T06:47:56;51.67;47.03;56.14;;
75467;Laerm;64050;50.634;3.062;2023-05-10T06:50:21;53.58;49.69;58.60;;
75467;Laerm;64050;50.634;3.062;2023-05-10T06:52:46;55.04;52.11;68.08;;
75467;Laerm;64050;50.634;3.062;2023-05-10T06:55:12;54.37;50.23;62.56;;
75467;Laerm;64050;50.634;3.062;2023-05-10T06:57:37;57.03;50.40;66.79;;
75467;Laerm;64050;50.634;3.062;2023-05-10T07:00:02;57.76;49.71;66.34;;
75467;Laerm;64050;50.634;3.062;2023-05-10T07:02:31;53.07;49.80;63.23;;
75467;Laerm;64050;50.634;3.062;2023-05-10T07:04:56;55.53;49.52;72.77;;
75467;Laerm;64050;50.634;3.062;2023-05-10T07:07:22;54.64;49.51;65.81;;
75467;Laerm;64050;50.634;3.062;2023-05-10T07:09:47;53.30;47.52;69.51;;
75467;Laerm;64050;50.634;3.062;2023-05-10T07:12:13;52.24;47.35;63.91;;
75467;Laerm;64050;50.634;3.062;2023-05-10T07:14:39;53.15;47.67;75.60;;
75467;Laerm;64050;50.634;3.062;2023-05-10T07:17:04;54.53;47.34;76.65;;
75467;Laerm;64050;50.634;3.062;2023-05-10T07:19:30;53.30;48.05;65.09;;
75467;Laerm;64050;50.634;3.062;2023-05-10T07:21:57;53.40;49.58;64.96;;
75467;Laerm;64050;50.634;3.062;2023-05-10T07:24:22;53.64;47.26;67.88;;
75467;Laerm;64050;50.634;3.062;2023-05-10T07:26:48;53.41;48.48;64.49;;
75467;Laerm;64050;50.634;3.062;2023-05-10T07:29:13;52.64;47.75;64.02;;
75467;Laerm;64050;50.634;3.062;2023-05-10T07:31:38;51.33;46.50;60.15;;
75467;Laerm;64050;50.634;3.062;2023-05-10T07:34:04;54.82;49.26;75.80;;
75467;Laerm;64050;50.634;3.062;2023-05-10T07:36:29;52.30;47.50;63.41;;
75467;Laerm;64050;50.634;3.062;2023-05-10T07:38:55;52.25;47.63;73.27;;
75467;Laerm;64050;50.634;3.062;2023-05-10T07:41:21;52.35;49.10;61.39;;
75467;Laerm;64050;50.634;3.062;2023-05-10T07:43:47;51.66;46.93;64.18;;
75467;Laerm;64050;50.634;3.062;2023-05-10T07:46:12;51.16;47.43;63.56;;
75467;Laerm;64050;50.634;3.062;2023-05-10T07:48:37;52.30;48.17;63.44;;
75467;Laerm;64050;50.634;3.062;2023-05-10T07:51:03;52.07;47.65;60.54;;
75467;Laerm;64050;50.634;3.062;2023-05-10T07:53:28;55.42;47.54;71.80;;
75467;Laerm;64050;50.634;3.062;2023-05-10T07:55:54;52.62;48.71;72.83;;
75467;Laerm;64050;50.634;3.062;2023-05-10T07:58:19;52.25;47.15;75.75;;
75467;Laerm;64050;50.634;3.062;2023-05-10T08:00:44;52.02;47.07;64.57;;
75467;Laerm;64050;50.634;3.062;2023-05-10T08:03:10;58.42;48.04;78.71;;
75467;Laerm;64050;50.634;3.062;2023-05-10T08:05:35;55.82;48.96;77.87;;
75467;Laerm;64050;50.634;3.062;2023-05-10T08:08:00;55.58;48.72;83.00;;
75467;Laerm;64050;50.634;3.062;2023-05-10T08:10:26;54.20;48.25;69.36;;
75467;Laerm;64050;50.634;3.062;2023-05-10T08:12:51;54.49;49.16;71.82;;
75467;Laerm;64050;50.634;3.062;2023-05-10T08:15:16;53.75;48.20;66.82;;
75467;Laerm;64050;50.634;3.062;2023-05-10T08:17:41;55.11;47.31;74.42;;
75467;Laerm;64050;50.634;3.062;2023-05-10T08:20:08;57.90;49.45;72.64;;
75467;Laerm;64050;50.634;3.062;2023-05-10T08:22:33;57.33;49.32;68.48;;
75467;Laerm;64050;50.634;3.062;2023-05-10T08:24:58;54.58;48.04;74.95;;
75467;Laerm;64050;50.634;3.062;2023-05-10T08:27:23;53.11;47.92;64.59;;
75467;Laerm;64050;50.634;3.062;2023-05-10T08:29:48;53.78;48.97;70.22;;
75467;Laerm;64050;50.634;3.062;2023-05-10T08:32:14;59.40;48.49;80.03;;
75467;Laerm;64050;50.634;3.062;2023-05-10T08:34:39;59.47;50.54;81.90;;
75467;Laerm;64050;50.634;3.062;2023-05-10T08:37:04;55.60;51.00;73.08;;
75467;Laerm;64050;50.634;3.062;2023-05-10T08:39:33;56.22;51.77;70.59;;
75467;Laerm;64050;50.634;3.062;2023-05-10T08:41:59;55.90;51.90;69.08;;
75467;Laerm;64050;50.634;3.062;2023-05-10T08:44:26;55.24;51.48;61.01;;
75467;Laerm;64050;50.634;3.062;2023-05-10T08:46:51;56.07;51.29;68.55;;
75467;Laerm;64050;50.634;3.062;2023-05-10T08:49:18;55.75;52.16;64.71;;
75467;Laerm;64050;50.634;3.062;2023-05-10T08:51:47;57.74;51.01;73.38;;
75467;Laerm;64050;50.634;3.062;2023-05-10T08:54:14;58.07;52.69;72.83;;
75467;Laerm;64050;50.634;3.062;2023-05-10T08:56:40;56.18;51.41;75.32;;
75467;Laerm;64050;50.634;3.062;2023-05-10T08:59:05;56.03;51.09;69.86;;
75467;Laerm;64050;50.634;3.062;2023-05-10T09:01:31;56.06;52.00;67.43;;
75467;Laerm;64050;50.634;3.062;2023-05-10T09:03:56;56.62;52.11;72.69;;
75467;Laerm;64050;50.634;3.062;2023-05-10T09:06:22;56.03;51.65;66.42;;
75467;Laerm;64050;50.634;3.062;2023-05-10T09:08:48;56.30;52.02;68.09;;
75467;Laerm;64050;50.634;3.062;2023-05-10T09:11:13;55.79;51.14;70.60;;
75467;Laerm;64050;50.634;3.062;2023-05-10T09:13:39;55.34;50.54;64.94;;
75467;Laerm;64050;50.634;3.062;2023-05-10T09:16:04;55.09;50.36;65.73;;
75467;Laerm;64050;50.634;3.062;2023-05-10T09:18:30;55.79;50.66;68.13;;
75467;Laerm;64050;50.634;3.062;2023-05-10T09:20:55;59.42;52.31;73.41;;
75467;Laerm;64050;50.634;3.062;2023-05-10T09:23:21;59.99;53.16;70.09;;
75467;Laerm;64050;50.634;3.062;2023-05-10T09:25:46;57.59;52.93;67.63;;
75467;Laerm;64050;50.634;3.062;2023-05-10T09:28:11;58.19;52.58;73.24;;
75467;Laerm;64050;50.634;3.062;2023-05-10T09:30:37;55.81;50.96;68.69;;
75467;Laerm;64050;50.634;3.062;2023-05-10T09:33:02;55.98;51.02;68.08;;
75467;Laerm;64050;50.634;3.062;2023-05-10T09:35:29;56.62;52.24;72.33;;
75467;Laerm;64050;50.634;3.062;2023-05-10T09:37:56;55.19;51.01;64.68;;
75467;Laerm;64050;50.634;3.062;2023-05-10T09:40:23;56.34;50.35;69.24;;
75467;Laerm;64050;50.634;3.062;2023-05-10T09:42:56;55.11;51.36;66.83;;
75467;Laerm;64050;50.634;3.062;2023-05-10T09:45:22;56.05;51.02;72.20;;
75467;Laerm;64050;50.634;3.062;2023-05-10T09:47:48;55.23;51.04;61.78;;
75467;Laerm;64050;50.634;3.062;2023-05-10T09:50:13;55.76;52.02;66.35;;
75467;Laerm;64050;50.634;3.062;2023-05-10T09:52:49;55.53;51.47;69.39;;
75467;Laerm;64050;50.634;3.062;2023-05-10T09:55:15;55.69;51.80;66.81;;
75467;Laerm;64050;50.634;3.062;2023-05-10T09:57:41;55.62;51.67;70.01;;
75467;Laerm;64050;50.634;3.062;2023-05-10T10:00:06;54.95;50.61;61.62;;
75467;Laerm;64050;50.634;3.062;2023-05-10T10:02:31;58.17;52.55;75.73;;
75467;Laerm;64050;50.634;3.062;2023-05-10T10:04:57;56.99;52.56;68.42;;
75467;Laerm;64050;50.634;3.062;2023-05-10T10:07:23;55.43;50.80;63.83;;
75467;Laerm;64050;50.634;3.062;2023-05-10T10:09:50;54.85;51.02;64.55;;
75467;Laerm;64050;50.634;3.062;2023-05-10T10:12:15;55.75;51.76;68.67;;
75467;Laerm;64050;50.634;3.062;2023-05-10T10:14:41;55.75;52.29;66.73;;
75467;Laerm;64050;50.634;3.062;2023-05-10T10:17:06;55.34;51.80;63.61;;
75467;Laerm;64050;50.634;3.062;2023-05-10T10:19:35;55.20;51.40;61.41;;
75467;Laerm;64050;50.634;3.062;2023-05-10T10:22:01;55.73;52.22;61.12;;
75467;Laerm;64050;50.634;3.062;2023-05-10T10:24:26;55.45;51.50;61.96;;
75467;Laerm;64050;50.634;3.062;2023-05-10T10:26:52;55.51;51.46;64.70;;
75467;Laerm;64050;50.634;3.062;2023-05-10T10:29:23;56.56;51.96;73.40;;
75467;Laerm;64050;50.634;3.062;2023-05-10T10:32:05;55.22;51.35;62.46;;
75467;Laerm;64050;50.634;3.062;2023-05-10T10:34:33;55.35;51.41;60.24;;
75467;Laerm;64050;50.634;3.062;2023-05-10T10:37:00;56.49;52.04;70.93;;
75467;Laerm;64050;50.634;3.062;2023-05-10T10:39:29;56.49;52.54;63.37;;
75467;Laerm;64050;50.634;3.062;2023-05-10T10:41:55;55.88;52.10;64.02;;
75467;Laerm;64050;50.634;3.062;2023-05-10T10:47:06;56.53;52.79;61.95;;
75467;Laerm;64050;50.634;3.062;2023-05-10T10:55:30;57.09;52.48;63.89;;
75467;Laerm;64050;50.634;3.062;2023-05-10T11:02:50;58.11;53.48;64.47;;
75467;Laerm;64050;50.634;3.062;2023-05-10T11:07:54;58.79;54.30;70.02;;
75467;Laerm;64050;50.634;3.062;2023-05-10T11:10:22;59.46;54.30;74.71;;
75467;Laerm;64050;50.634;3.062;2023-05-10T11:13:07;61.53;53.81;78.09;;
75467;Laerm;64050;50.634;3.062;2023-05-10T11:15:34;63.41;53.23;79.01;;
75467;Laerm;64050;50.634;3.062;2023-05-10T11:17:59;60.10;55.90;78.14;;
75467;Laerm;64050;50.634;3.062;2023-05-10T11:20:28;61.40;56.90;70.26;;
75467;Laerm;64050;50.634;3.062;2023-05-10T11:22:58;61.27;55.99;73.34;;
75467;Laerm;64050;50.634;3.062;2023-05-10T11:25:35;60.01;54.35;77.73;;
75467;Laerm;64050;50.634;3.062;2023-05-10T11:28:05;57.77;53.03;68.33;;
75467;Laerm;64050;50.634;3.062;2023-05-10T11:30:31;59.04;52.67;76.20;;
75467;Laerm;64050;50.634;3.062;2023-05-10T11:32:56;58.00;53.34;67.99;;
75467;Laerm;64050;50.634;3.062;2023-05-10T11:35:21;59.31;53.40;74.15;;
75467;Laerm;64050;50.634;3.062;2023-05-10T11:37:47;59.07;54.02;71.05;;
75467;Laerm;64050;50.634;3.062;2023-05-10T11:40:13;59.21;54.06;76.49;;
75467;Laerm;64050;50.634;3.062;2023-05-10T11:42:38;58.67;53.27;72.03;;
75467;Laerm;64050;50.634;3.062;2023-05-10T11:45:03;58.39;53.06;69.70;;
75467;Laerm;64050;50.634;3.062;2023-05-10T11:47:29;57.36;53.01;67.49;;
75467;Laerm;64050;50.634;3.062;2023-05-10T11:49:54;61.08;54.12;77.62;;
75467;Laerm;64050;50.634;3.062;2023-05-10T11:52:20;58.60;52.82;74.09;;
75467;Laerm;64050;50.634;3.062;2023-05-10T11:54:54;57.23;53.26;66.38;;
75467;Laerm;64050;50.634;3.062;2023-05-10T11:57:20;57.96;53.53;70.24;;
75467;Laerm;64050;50.634;3.062;2023-05-10T11:59:46;57.47;53.16;65.93;;
75467;Laerm;64050;50.634;3.062;2023-05-10T12:02:12;57.64;53.10;69.56;;
75467;Laerm;64050;50.634;3.062;2023-05-10T12:04:37;58.07;52.66;76.23;;
75467;Laerm;64050;50.634;3.062;2023-05-10T12:07:03;57.69;53.51;67.62;;
75467;Laerm;64050;50.634;3.062;2023-05-10T12:09:28;58.21;53.31;64.67;;
75467;Laerm;64050;50.634;3.062;2023-05-10T12:11:55;56.70;52.61;62.99;;
75467;Laerm;64050;50.634;3.062;2023-05-10T12:14:21;56.05;52.54;63.05;;
75467;Laerm;64050;50.634;3.062;2023-05-10T12:16:47;56.75;52.43;62.76;;
75467;Laerm;64050;50.634;3.062;2023-05-10T12:19:12;56.80;52.10;65.38;;
75467;Laerm;64050;50.634;3.062;2023-05-10T12:21:43;54.87;47.72;68.53;;
75467;Laerm;64050;50.634;3.062;2023-05-10T12:24:08;53.23;47.27;65.14;;
75467;Laerm;64050;50.634;3.062;2023-05-10T12:26:35;53.03;47.93;61.70;;
75467;Laerm;64050;50.634;3.062;2023-05-10T12:29:16;53.31;47.76;62.41;;
75467;Laerm;64050;50.634;3.062;2023-05-10T12:34:32;53.06;47.42;68.74;;
75467;Laerm;64050;50.634;3.062;2023-05-10T12:36:57;57.38;47.91;84.61;;
75467;Laerm;64050;50.634;3.062;2023-05-10T12:39:23;52.56;48.03;62.41;;
75467;Laerm;64050;50.634;3.062;2023-05-10T12:41:48;52.45;47.48;65.88;;
75467;Laerm;64050;50.634;3.062;2023-05-10T12:44:14;52.73;47.46;70.86;;
75467;Laerm;64050;50.634;3.062;2023-05-10T12:46:39;52.86;48.22;64.72;;
75467;Laerm;64050;50.634;3.062;2023-05-10T12:49:04;52.01;47.81;65.89;;
75467;Laerm;64050;50.634;3.062;2023-05-10T12:51:29;52.42;48.44;66.08;;
75467;Laerm;64050;50.634;3.062;2023-05-10T12:53:55;52.51;47.71;68.67;;
75467;Laerm;64050;50.634;3.062;2023-05-10T12:56:20;52.44;46.60;66.47;;
75467;Laerm;64050;50.634;3.062;2023-05-10T12:58:46;53.43;48.10;69.42;;
75467;Laerm;64050;50.634;3.062;2023-05-10T13:01:13;53.05;48.14;64.78;;
75467;Laerm;64050;50.634;3.062;2023-05-10T13:03:38;54.25;49.18;67.93;;
75467;Laerm;64050;50.634;3.062;2023-05-10T13:06:03;53.85;49.16;63.14;;
75467;Laerm;64050;50.634;3.062;2023-05-10T13:08:29;53.75;48.42;62.39;;
75467;Laerm;64050;50.634;3.062;2023-05-10T13:10:58;52.57;48.12;62.01;;
75467;Laerm;64050;50.634;3.062;2023-05-10T13:13:23;54.70;47.77;76.03;;
75467;Laerm;64050;50.634;3.062;2023-05-10T13:15:48;53.12;47.45;73.47;;
75467;Laerm;64050;50.634;3.062;2023-05-10T13:18:13;53.53;48.23;69.95;;
75467;Laerm;64050;50.634;3.062;2023-05-10T13:20:38;52.72;48.28;67.19;;
75467;Laerm;64050;50.634;3.062;2023-05-10T13:23:04;52.41;48.80;64.24;;
75467;Laerm;64050;50.634;3.062;2023-05-10T13:25:29;52.85;48.60;65.28;;
75467;Laerm;64050;50.634;3.062;2023-05-10T13:27:55;52.92;47.82;66.98;;
75467;Laerm;64050;50.634;3.062;2023-05-10T13:30:20;52.79;47.74;63.64;;
75467;Laerm;64050;50.634;3.062;2023-05-10T13:32:45;52.38;47.90;66.79;;
75467;Laerm;64050;50.634;3.062;2023-05-10T13:35:10;51.92;48.36;64.22;;
75467;Laerm;64050;50.634;3.062;2023-05-10T13:37:35;52.41;48.58;61.72;;
75467;Laerm;64050;50.634;3.062;2023-05-10T13:40:02;52.70;48.31;65.21;;
75467;Laerm;64050;50.634;3.062;2023-05-10T13:42:27;53.12;48.84;74.35;;
75467;Laerm;64050;50.634;3.062;2023-05-10T13:44:53;52.27;47.43;65.32;;
75467;Laerm;64050;50.634;3.062;2023-05-10T13:47:18;52.36;47.97;64.77;;
75467;Laerm;64050;50.634;3.062;2023-05-10T13:49:43;51.85;47.71;59.03;;
75467;Laerm;64050;50.634;3.062;2023-05-10T13:52:09;52.92;47.92;68.15;;
75467;Laerm;64050;50.634;3.062;2023-05-10T13:54:35;53.10;48.23;64.24;;
75467;Laerm;64050;50.634;3.062;2023-05-10T13:57:00;53.22;48.68;61.27;;
75467;Laerm;64050;50.634;3.062;2023-05-10T13:59:26;52.74;48.13;64.61;;
75467;Laerm;64050;50.634;3.062;2023-05-10T14:01:51;54.84;48.28;78.22;;
75467;Laerm;64050;50.634;3.062;2023-05-10T14:04:16;53.26;47.57;67.81;;
75467;Laerm;64050;50.634;3.062;2023-05-10T14:06:41;52.47;47.52;66.19;;
75467;Laerm;64050;50.634;3.062;2023-05-10T14:09:07;53.17;48.19;64.89;;
75467;Laerm;64050;50.634;3.062;2023-05-10T14:11:32;51.93;48.57;57.02;;
75467;Laerm;64050;50.634;3.062;2023-05-10T14:13:57;52.68;48.74;68.16;;